Time;durP1;ratioP1;P1;durP2;ratioP2;P2;SDS_P1;SDS_P2;PMS_P1;PMS_P2;Temp;Humidity;BMP_temperature;BMP_pressure;BME280_temperature;BME280_humidity;BME280_pressure;Samples;Min_cycle;Max_cycle;Signal;HPM_P1;HPM_P2
2022/03/26 00:00:22;;;;;;;30.58;19.52;;;;;;;;;;5075231;28;20043;-67
2022/03/26 00:02:48;;;;;;;41.17;23.40;;;;;;;;;;5075367;28;20016;-68
2022/03/26 00:05:15;;;;;;;35.17;20.42;;;;;;;;;;5075670;28;20406;-68
2022/03/26 00:07:41;;;;;;;36.33;22.10;;;;;;;;;;5075175;28;20017;-66
2022/03/26 00:10:08;;;;;;;42.25;22.58;;;;;;;;;;5074928;28;20119;-67
2022/03/26 00:12:34;;;;;;;34.88;20.90;;;;;;;;;;5075179;28;20552;-67
2022/03/26 00:15:00;;;;;;;38.38;21.60;;;;;;;;;;5075177;28;20025;-66
2022/03/26 00:17:26;;;;;;;33.92;21.40;;;;;;;;;;5075324;28;20024;-67
2022/03/26 00:19:53;;;;;;;34.55;20.75;;;;;;;;;;5075051;28;20056;-68
2022/03/26 00:22:19;;;;;;;40.13;26.08;;;;;;;;;;5074627;28;20095;-68
2022/03/26 00:24:45;;;;;;;32.42;20.52;;;;;;;;;;5074795;28;20048;-69
2022/03/26 00:27:11;;;;;;;40.28;23.63;;;;;;;;;;5074860;28;20048;-67
2022/03/26 00:29:37;;;;;;;31.00;20.95;;;;;;;;;;5074954;28;20052;-68
2022/03/26 00:32:04;;;;;;;33.03;19.88;;;;;;;;;;5074632;28;20029;-67
2022/03/26 00:34:32;;;;;;;29.80;18.33;;;;;;;;;;5074812;28;20078;-67
2022/03/26 00:36:58;;;;;;;31.42;17.20;;;;;;;;;;5074641;28;20384;-69
2022/03/26 00:39:24;;;;;;;30.75;17.98;;;;;;;;;;5075015;28;20023;-66
2022/03/26 00:41:50;;;;;;;23.75;15.52;;;;;;;;;;5075104;28;20030;-67
2022/03/26 00:44:16;;;;;;;23.20;16.17;;;256.70;1484.80;;;;;;5074587;28;20025;-66
2022/03/26 00:46:45;;;;;;;28.90;17.05;;;;;;;;;;5074473;28;20360;-65
2022/03/26 00:49:11;;;;;;;28.75;16.50;;;;;;;;;;5074506;28;20116;-66
2022/03/26 00:51:37;;;;;;;28.52;16.92;;;;;;;;;;5074378;28;20612;-66
2022/03/26 00:54:03;;;;;;;29.48;18.42;;;;;;;;;;5072703;28;20027;-66
2022/03/26 00:56:30;;;;;;;27.90;16.45;;;;;;;;;;5074547;28;20037;-66
2022/03/26 00:58:56;;;;;;;31.27;21.23;;;;;;;;;;5074639;28;20028;-68
2022/03/26 01:01:22;;;;;;;33.03;18.60;;;;;;;;;;5074263;28;20162;-67
2022/03/26 01:03:48;;;;;;;38.40;17.02;;;;;;;;;;5074234;28;20021;-66
2022/03/26 01:06:14;;;;;;;26.73;15.65;;;;;;;;;;5073918;28;20032;-67
2022/03/26 01:08:40;;;;;;;26.17;16.02;;;;;;;;;;5074409;28;20036;-67
2022/03/26 01:11:07;;;;;;;23.77;15.30;;;;;;;;;;5074110;28;20032;-67
2022/03/26 01:13:34;;;;;;;21.02;15.20;;;;;;;;;;5073975;28;20028;-66
2022/03/26 01:16:01;;;;;;;23.63;15.65;;;;;;;;;;5073848;28;20082;-67
2022/03/26 01:18:28;;;;;;;28.20;16.00;;;;;;;;;;5073880;28;20066;-67
2022/03/26 01:20:54;;;;;;;21.58;14.25;;;;;;;;;;5074071;28;20382;-66
2022/03/26 01:23:20;;;;;;;21.83;14.93;;;;;;;;;;5073654;28;20029;-66
2022/03/26 01:25:46;;;;;;;27.13;16.42;;;256.40;1484.80;;;;;;5073425;28;20041;-67
2022/03/26 01:28:12;;;;;;;20.52;14.00;;;256.40;1484.80;;;;;;5073639;28;20051;-66
2022/03/26 01:30:38;;;;;;;20.95;14.77;;;256.40;1484.80;;;;;;5073693;28;20028;-64
2022/03/26 01:33:04;;;;;;;23.83;14.45;;;;;;;;;;5073629;28;20020;-66
2022/03/26 01:35:30;;;;;;;24.60;15.68;;;;;;;;;;5073756;28;20032;-66
2022/03/26 01:38:01;;;;;;;23.23;13.85;;;;;;;;;;5073790;28;20153;-66
2022/03/26 01:40:27;;;;;;;23.38;14.27;;;;;;;;;;5073652;28;20012;-65
2022/03/26 01:42:54;;;;;;;22.60;14.05;;;;;;;;;;5073804;28;20050;-66
2022/03/26 01:45:20;;;;;;;22.20;14.40;;;;;;;;;;5055830;28;20033;-65
2022/03/26 01:47:46;;;;;;;25.88;14.93;;;;;;;;;;5073762;28;20041;-67
2022/03/26 01:50:12;;;;;;;22.95;12.95;;;;;;;;;;5073600;28;20016;-67
2022/03/26 01:52:38;;;;;;;23.67;13.32;;;256.00;1536.00;;;;;;5073326;28;20044;-65
2022/03/26 01:55:04;;;;;;;22.63;13.57;;;256.00;1792.00;;;;;;5073203;28;20117;-67
2022/03/26 01:57:30;;;;;;;18.88;12.73;;;231.20;1561.60;;;;;;5073352;28;20028;-67
2022/03/26 01:59:57;;;;;;;22.30;14.63;;;231.10;1561.60;;;;;;5073177;28;20043;-64
2022/03/26 02:02:25;;;;;;;18.15;12.35;;;231.20;1561.60;;;;;;5073239;28;20064;-63
2022/03/26 02:04:51;;;;;;;20.48;12.98;;;231.10;1561.60;;;;;;5072679;28;20051;-67
2022/03/26 02:07:17;;;;;;;19.70;12.30;;;;;;;;;;5073056;28;20031;-68
2022/03/26 02:09:43;;;;;;;20.75;13.77;;;;;;;;;;5072857;28;20380;-68
2022/03/26 02:12:29;;;;;;;21.60;13.05;;;;;;;;;;5072870;28;20077;-67
2022/03/26 02:14:56;;;;;;;20.45;12.85;;;;;;;;;;5072785;28;20028;-68
2022/03/26 02:17:22;;;;;;;19.80;12.55;;;;;;;;;;5072465;28;20076;-67
2022/03/26 02:19:53;;;;;;;19.73;12.35;;;;;;;;;;5072708;28;20024;-67
2022/03/26 02:22:20;;;;;;;18.95;12.85;;;;;;;;;;5072382;28;20035;-67
2022/03/26 02:24:46;;;;;;;18.40;12.68;;;;;;;;;;5072671;28;20016;-67
2022/03/26 02:27:12;;;;;;;18.88;13.20;;;;;;;;;;5072678;28;20040;-67
2022/03/26 02:29:39;;;;;;;21.00;12.30;;;;;;;;;;5072765;28;20025;-66
2022/03/26 02:32:05;;;;;;;20.48;13.18;;;;;;;;;;5072693;28;20469;-66
2022/03/26 02:34:32;;;;;;;21.92;12.50;;;;;;;;;;5072519;28;20047;-66
2022/03/26 02:36:58;;;;;;;20.95;13.02;;;;;;;;;;5072259;28;20082;-67
2022/03/26 02:39:25;;;;;;;21.80;14.25;;;;;;;;;;5072451;28;20027;-67
2022/03/26 02:41:51;;;;;;;23.63;12.88;;;;;;;;;;5072480;28;20391;-68
2022/03/26 02:44:17;;;;;;;25.52;13.27;;;;;;;;;;5072549;28;20047;-68
2022/03/26 02:46:45;;;;;;;20.83;13.30;;;;;;;;;;5072647;28;20025;-66
2022/03/26 02:49:12;;;;;;;21.60;13.10;;;;;;;;;;5072729;28;20031;-67
2022/03/26 02:51:38;;;;;;;21.60;12.52;;;;;;;;;;5072764;28;20013;-66
2022/03/26 02:54:04;;;;;;;19.90;12.60;;;;;;;;;;5071907;28;20025;-68
2022/03/26 02:56:30;;;;;;;21.00;12.85;;;;;;;;;;5072577;28;20040;-66
2022/03/26 02:58:56;;;;;;;23.35;14.02;;;;;;;;;;5072181;28;20531;-65
2022/03/26 03:01:23;;;;;;;26.38;14.55;;;;;;;;;;5072488;28;20029;-65
2022/03/26 03:03:50;;;;;;;26.05;15.93;;;;;;;;;;5072304;28;20070;-68
2022/03/26 03:06:16;;;;;;;23.95;13.50;;;;;;;;;;5072216;28;20020;-69
2022/03/26 03:08:42;;;;;;;18.10;12.40;;;;;;;;;;5071949;28;20156;-69
2022/03/26 03:11:09;;;;;;;19.73;13.02;;;;;;;;;;5072204;28;20027;-70
2022/03/26 03:13:35;;;;;;;21.88;13.57;;;;;;;;;;5072118;28;20020;-68
2022/03/26 03:16:01;;;;;;;19.48;12.23;;;;;;;;;;5071922;28;20043;-69
2022/03/26 03:18:27;;;;;;;19.63;12.63;;;230.90;1612.80;;;;;;5075414;28;20121;-68
2022/03/26 03:20:53;;;;;;;17.00;11.48;;;;;;;;;;5076084;28;20117;-70
2022/03/26 03:23:19;;;;;;;20.65;12.82;;;;;;;;;;5075692;28;20395;-69
2022/03/26 03:25:45;;;;;;;21.75;13.20;;;;;;;;;;5075929;28;20049;-67
2022/03/26 03:28:12;;;;;;;19.60;12.60;;;;;;;;;;5076014;28;20024;-67
2022/03/26 03:30:38;;;;;;;21.02;12.77;;;;;;;;;;5076012;28;20280;-67
2022/03/26 03:33:04;;;;;;;24.30;12.57;;;;;;;;;;5075978;28;20103;-68
2022/03/26 03:35:30;;;;;;;21.98;12.32;;;;;;;;;;5075849;28;20025;-67
2022/03/26 03:37:56;;;;;;;18.70;12.20;;;;;;;;;;5075456;28;20024;-67
2022/03/26 03:40:22;;;;;;;20.25;12.02;;;;;;;;;;5075828;28;20058;-67
2022/03/26 03:42:48;;;;;;;17.40;12.48;;;;;;;;;;5075702;28;20102;-67
2022/03/26 03:45:15;;;;;;;25.23;14.30;;;;;;;;;;5075916;28;20035;-66
2022/03/26 03:47:41;;;;;;;23.45;13.13;;;;;;;;;;5076010;28;20521;-67
2022/03/26 03:50:07;;;;;;;19.00;12.50;;;;;;;;;;5075548;28;20029;-66
2022/03/26 03:52:33;;;;;;;21.65;12.68;;;;;;;;;;5075181;28;20417;-67
2022/03/26 03:54:59;;;;;;;18.60;12.98;;;;;;;;;;5075689;28;20013;-66
2022/03/26 03:57:25;;;;;;;24.45;12.80;;;;;;;;;;5075374;28;20035;-67
2022/03/26 03:59:52;;;;;;;18.85;12.88;;;;;;;;;;5075429;28;20100;-66
2022/03/26 04:02:18;;;;;;;22.02;13.20;;;;;;;;;;5075334;28;20052;-67
2022/03/26 04:04:44;;;;;;;18.73;12.82;;;;;;;;;;5075347;28;20012;-67
2022/03/26 04:07:10;;;;;;;20.55;12.68;;;;;;;;;;5075280;28;20100;-68
2022/03/26 04:09:37;;;;;;;20.10;12.75;;;;;;;;;;5074949;28;20036;-67
2022/03/26 04:12:03;;;;;;;24.65;13.27;;;;;;;;;;5075182;28;20046;-67
2022/03/26 04:14:31;;;;;;;29.63;16.67;;;;;;;;;;5075121;28;20103;-68
2022/03/26 04:16:57;;;;;;;22.17;14.52;;;;;;;;;;5074979;28;20047;-67
2022/03/26 04:19:23;;;;;;;20.17;13.52;;;;;;;;;;5075066;28;20483;-67
2022/03/26 04:21:50;;;;;;;24.88;15.02;;;;;;;;;;5074984;28;20479;-67
2022/03/26 04:24:16;;;;;;;23.23;13.05;;;;;;;;;;5074482;28;20112;-69
2022/03/26 04:26:43;;;;;;;21.90;13.52;;;;;;;;;;5074690;28;20045;-70
2022/03/26 04:29:09;;;;;;;25.27;14.93;;;;;;;;;;5056582;28;20028;-70
2022/03/26 04:31:35;;;;;;;25.73;14.13;;;;;;;;;;5074848;28;20017;-67
2022/03/26 04:34:01;;;;;;;35.85;17.10;;;;;;;;;;5074761;28;20067;-69
2022/03/26 04:36:29;;;;;;;29.60;15.82;;;;;;;;;;5074865;28;20082;-68
2022/03/26 04:38:55;;;;;;;28.08;16.17;;;;;;;;;;5074603;28;20429;-67
2022/03/26 04:41:21;;;;;;;24.38;15.38;;;;;;;;;;5074946;28;20051;-66
2022/03/26 04:43:47;;;;;;;23.42;14.75;;;;;;;;;;5074980;28;20074;-66
2022/03/26 04:46:13;;;;;;;24.05;14.95;;;;;;;;;;5074553;28;20028;-68
2022/03/26 04:48:39;;;;;;;27.25;14.75;;;;;;;;;;5074717;28;20471;-65
2022/03/26 04:51:05;;;;;;;27.00;15.25;;;;;;;;;;5074439;28;20132;-66
2022/03/26 04:53:31;;;;;;;26.58;16.70;;;;;;;;;;5073931;28;20494;-68
2022/03/26 04:55:57;;;;;;;26.08;16.27;;;;;;;;;;5074412;28;20447;-68
2022/03/26 04:58:24;;;;;;;25.13;15.90;;;;;;;;;;5074145;28;20028;-68
2022/03/26 05:00:50;;;;;;;34.63;16.25;;;;;;;;;;5074321;28;20044;-66
2022/03/26 05:03:16;;;;;;;27.98;15.02;;;;;;;;;;5074225;28;20097;-67
2022/03/26 05:05:42;;;;;;;29.83;16.20;;;;;;;;;;5074273;28;20467;-68
2022/03/26 05:08:08;;;;;;;27.90;16.23;;;;;;;;;;5074211;28;20430;-69
2022/03/26 05:10:34;;;;;;;29.95;16.27;;;;;;;;;;5074042;28;20058;-67
2022/03/26 05:13:00;;;;;;;26.75;16.08;;;;;;;;;;5074002;28;20074;-68
2022/03/26 05:15:27;;;;;;;32.83;17.00;;;;;;;;;;5073837;28;20101;-69
2022/03/26 05:17:53;;;;;;;45.33;19.10;;;;;;;;;;5073988;28;20028;-66
2022/03/26 05:20:20;;;;;;;32.42;18.52;;;;;;;;;;5073923;28;20028;-67
2022/03/26 05:22:47;;;;;;;34.40;18.10;;;;;;;;;;5073592;28;20521;-66
2022/03/26 05:25:14;;;;;;;26.17;15.30;;;;;;;;;;5073417;28;20053;-67
2022/03/26 05:27:47;;;;;;;29.88;15.45;;;;;;;;;;5073808;28;20012;-67
2022/03/26 05:30:13;;;;;;;26.73;15.27;;;;;;;;;;5073701;28;20020;-67
2022/03/26 05:32:39;;;;;;;30.23;17.13;;;;;;;;;;5073696;28;20023;-68
2022/03/26 05:35:11;;;;;;;40.88;20.38;;;;;;;;;;5073657;28;20074;-67
2022/03/26 05:37:38;;;;;;;38.13;18.85;;;;;;;;;;5073633;28;20068;-68
2022/03/26 05:40:04;;;;;;;43.78;19.40;;;;;;;;;;5073106;28;20028;-66
2022/03/26 05:42:30;;;;;;;38.10;22.02;;;;;;;;;;5073760;28;20035;-67
2022/03/26 05:44:57;;;;;;;41.47;20.85;;;;;;;;;;5073364;28;20025;-68
2022/03/26 05:47:24;;;;;;;34.92;20.85;;;;;;;;;;5073390;28;20077;-67
2022/03/26 05:49:50;;;;;;;34.10;20.02;;;;;;;;;;5073250;28;20020;-68
2022/03/26 05:52:17;;;;;;;36.65;20.55;;;;;;;;;;5072884;28;20040;-68
2022/03/26 05:54:43;;;;;;;35.75;21.02;;;;;;;;;;5073322;28;20026;-69
2022/03/26 05:57:09;;;;;;;33.35;21.23;;;;;;;;;;5073098;28;20154;-68
2022/03/26 05:59:35;;;;;;;31.98;19.10;;;;;;;;;;5073079;28;20016;-70
2022/03/26 06:02:02;;;;;;;27.25;17.15;;;;;;;;;;5073078;28;20549;-68
2022/03/26 06:04:28;;;;;;;31.30;19.60;;;;;;;;;;5072901;28;20079;-69
2022/03/26 06:06:55;;;;;;;29.77;17.77;;;;;;;;;;5072936;28;20116;-67
2022/03/26 06:09:21;;;;;;;44.90;20.80;;;;;;;;;;5073190;28;20051;-68
2022/03/26 06:11:47;;;;;;;34.65;20.70;;;;;;;;;;5054329;28;20047;-68
2022/03/26 06:14:13;;;;;;;42.47;20.75;;;;;;;;;;5072694;28;20035;-68
2022/03/26 06:16:39;;;;;;;37.65;21.35;;;;;;;;;;5072696;28;20075;-70
2022/03/26 06:19:05;;;;;;;46.53;22.50;;;;;;;;;;5072767;28;20029;-69
2022/03/26 06:21:31;;;;;;;40.17;21.08;;;;;;;;;;5072738;28;20072;-68
2022/03/26 06:23:58;;;;;;;32.10;19.92;;;;;;;;;;5053649;28;20120;-71
2022/03/26 06:26:28;;;;;;;28.90;18.27;;;;;;;;;;5071867;28;20119;-67
2022/03/26 06:28:54;;;;;;;34.08;19.40;;;;;;;;;;5072612;28;20035;-67
2022/03/26 06:31:20;;;;;;;33.13;19.90;;;;;;;;;;5072633;28;20025;-69
2022/03/26 06:33:46;;;;;;;33.30;20.83;;;;;;;;;;5072585;28;20025;-67
2022/03/26 06:36:13;;;;;;;37.15;23.20;;;;;;;;;;5072675;28;20043;-67
2022/03/26 06:38:41;;;;;;;38.22;23.75;;;;;;;;;;5072725;28;20013;-66
2022/03/26 06:41:07;;;;;;;45.67;24.80;;;;;;;;;;5072709;28;20052;-67
2022/03/26 06:43:34;;;;;;;34.13;23.95;;;;;;;;;;5072862;28;20020;-66
2022/03/26 06:46:00;;;;;;;38.22;24.23;;;;;;;;;;5072573;28;20036;-67
2022/03/26 06:48:26;;;;;;;42.45;28.30;;;;;;;;;;5072445;28;20483;-67
2022/03/26 06:50:53;;;;;;;47.67;29.83;;;;;;;;;;5072663;28;20032;-68
2022/03/26 06:53:20;;;;;;;40.28;26.35;;;;;;;;;;5054564;28;20130;-65
2022/03/26 06:55:46;;;;;;;48.47;29.33;;;;;;;;;;5072575;28;20556;-66
2022/03/26 06:58:12;;;;;;;48.08;27.88;;;;;;;;;;5072301;28;20029;-68
2022/03/26 07:00:38;;;;;;;39.75;24.52;;;;;;;;;;5072499;28;20024;-68
2022/03/26 07:03:04;;;;;;;36.25;20.10;;;;;;;;;;5072502;28;20052;-68
2022/03/26 07:05:30;;;;;;;42.00;23.73;;;;;;;;;;5053794;28;20033;-68
2022/03/26 07:07:57;;;;;;;36.28;21.30;;;;;;;;;;5072465;28;20021;-68
2022/03/26 07:10:23;;;;;;;37.15;21.48;;;;;;;;;;5071861;28;20485;-67
2022/03/26 07:12:49;;;;;;;31.92;20.80;;;;;;;;;;5072338;28;20467;-67
2022/03/26 07:15:15;;;;;;;42.83;23.55;;;;;;;;;;5072305;28;20059;-68
2022/03/26 07:17:44;;;;;;;35.28;21.83;;;;;;;;;;5071865;28;20127;-67
2022/03/26 07:20:11;;;;;;;44.33;21.80;;;;;;;;;;5072093;28;20032;-68
2022/03/26 07:22:38;;;;;;;29.35;17.50;;;;;;;;;;5071801;28;20096;-67
2022/03/26 07:25:04;;;;;;;24.98;17.27;;;;;;;;;;5071504;28;20067;-68
2022/03/26 07:27:34;;;;;;;33.90;19.55;;;384.70;1280.00;;;;;;5071800;28;20085;-68
2022/03/26 07:30:00;;;;;;;37.72;20.70;;;384.90;1305.60;;;;;;5071970;28;20025;-68
2022/03/26 07:32:27;;;;;;;33.50;19.83;;;;;;;;;;5071766;28;20035;-68
2022/03/26 07:34:53;;;;;;;50.70;31.88;;;;;;;;;;5071666;28;20025;-68
2022/03/26 07:37:19;;;;;;;51.67;33.03;;;;;;;;;;5071426;28;20043;-69
2022/03/26 07:39:45;;;;;;;41.58;29.35;;;;;;;;;;5071726;28;20429;-67
2022/03/26 07:42:12;;;;;;;45.55;24.27;;;;;;;;;;5071637;28;20074;-68
2022/03/26 07:44:38;;;;;;;40.08;24.63;;;;;;;;;;5071613;28;20378;-67
2022/03/26 07:47:04;;;;;;;53.17;34.75;;;;;;;;;;5071626;28;20032;-67
2022/03/26 07:49:31;;;;;;;37.85;26.50;;;435.40;1228.80;;;;;;5071777;28;20036;-67
2022/03/26 07:51:57;;;;;;;37.83;23.77;;;;;;;;;;5071493;28;20032;-68
2022/03/26 07:54:23;;;;;;;36.40;22.73;;;;;;;;;;5071282;28;20036;-68
2022/03/26 07:56:49;;;;;;;45.88;27.45;;;;;;;;;;5071569;28;20032;-68
2022/03/26 07:59:15;;;;;;;38.88;24.95;;;;;;;;;;5071689;28;20103;-68
2022/03/26 08:01:41;;;;;;;48.80;33.15;;;;;;;;;;5071637;28;20035;-68
2022/03/26 08:04:07;;;;;;;36.13;25.60;;;;;;;;;;5073868;28;20066;-68
2022/03/26 08:06:34;;;;;;;26.40;19.15;;;;;;;;;;5075010;28;20528;-68
2022/03/26 08:09:00;;;;;;;41.10;24.15;;;;;;;;;;5074542;28;20104;-68
2022/03/26 08:11:26;;;;;;;30.88;20.10;;;;;;;;;;5074665;28;20029;-68
2022/03/26 08:13:52;;;;;;;28.83;20.02;;;;;;;;;;5074631;28;20024;-68
2022/03/26 08:16:19;;;;;;;31.67;20.88;;;;;;;;;;5074601;28;20036;-66
2022/03/26 08:18:46;;;;;;;31.00;21.13;;;;;;;;;;5074752;28;20502;-66
2022/03/26 08:21:14;;;;;;;33.47;17.40;;;;;;;;;;5074220;28;20032;-66
2022/03/26 08:23:40;;;;;;;32.50;16.88;;;;;;;;;;5073862;28;20016;-69
2022/03/26 08:28:52;;;;;;;40.03;19.60;;;;;;;;;;5074667;28;20039;-67
2022/03/26 08:31:18;;;;;;;27.38;15.98;;;;;;;;;;5074138;28;20139;-66
2022/03/26 08:33:48;;;;;;;24.65;16.55;;;;;;;;;;5074606;28;20378;-68
2022/03/26 08:36:15;;;;;;;36.88;19.77;;;;;;;;;;5074088;28;20033;-66
2022/03/26 08:38:41;;;;;;;29.05;17.83;;;;;;;;;;5073237;28;20046;-65
2022/03/26 08:41:07;;;;;;;29.55;18.33;;;;;;;;;;5073563;28;20033;-66
2022/03/26 08:43:33;;;;;;;23.92;16.67;;;;;;;;;;5074217;28;20020;-66
2022/03/26 08:45:59;;;;;;;28.67;18.02;;;;;;;;;;5074551;28;20068;-66
2022/03/26 08:48:26;;;;;;;25.73;18.60;;;;;;;;;;5074231;28;20475;-66
2022/03/26 08:50:53;;;;;;;17.27;12.65;;;;;;;;;;5074068;28;20028;-67
2022/03/26 08:53:22;;;;;;;21.52;14.77;;;;;;;;;;5074082;28;20082;-67
2022/03/26 08:55:48;;;;;;;25.88;14.77;;;;;;;;;;5074293;28;20032;-66
2022/03/26 08:58:14;;;;;;;26.73;14.30;;;;;;;;;;5074109;28;20020;-66
2022/03/26 09:00:40;;;;;;;32.03;16.80;;;;;;;;;;5074134;28;20031;-66
2022/03/26 09:03:07;;;;;;;20.60;13.25;;;;;;;;;;5074172;28;20048;-65
2022/03/26 09:05:33;;;;;;;20.10;15.57;;;;;;;;;;5074245;28;20043;-65
2022/03/26 09:07:59;;;;;;;19.55;14.05;;;;;;;;;;5074290;28;20107;-66
2022/03/26 09:10:25;;;;;;;17.65;12.90;;;;;;;;;;5073699;28;20025;-66
2022/03/26 09:12:52;;;;;;;21.42;12.50;;;;;;;;;;5074200;28;20113;-67
2022/03/26 09:15:18;;;;;;;16.88;11.95;;;;;;;;;;5073326;28;20099;-66
2022/03/26 09:17:44;;;;;;;16.42;11.98;;;;;;;;;;5074208;28;20037;-65
2022/03/26 09:20:10;;;;;;;20.35;12.23;;;;;;;;;;5074000;28;20020;-66
2022/03/26 09:22:37;;;;;;;17.52;12.02;;;;;;;;;;5072747;28;20027;-67
2022/03/26 09:25:04;;;;;;;18.92;12.38;;;;;;;;;;5073388;28;20485;-68
2022/03/26 09:27:30;;;;;;;22.70;13.35;;;;;;;;;;5073250;28;20052;-66
2022/03/26 09:29:56;;;;;;;75.88;32.75;;;;;;;;;;5073495;28;20100;-66
2022/03/26 09:32:22;;;;;;;24.17;14.93;;;;;;;;;;5073390;28;20024;-66
2022/03/26 09:34:49;;;;;;;29.60;14.23;;;;;;;;;;5073519;28;20391;-66
2022/03/26 09:37:16;;;;;;;23.40;13.07;;;;;;;;;;5073246;28;20494;-66
2022/03/26 09:39:42;;;;;;;20.02;12.93;;;;;;;;;;5073349;28;20021;-66
2022/03/26 09:42:09;;;;;;;19.20;12.52;;;;;;;;;;5073136;28;20547;-66
2022/03/26 09:44:36;;;;;;;18.42;12.40;;;;;;;;;;5073147;28;20746;-68
2022/03/26 09:47:05;;;;;;;33.90;21.60;;;;;;;;;;5073553;28;20146;-66
2022/03/26 09:49:32;;;;;;;20.40;13.80;;;;;;;;;;5073822;28;20455;-67
2022/03/26 09:51:59;;;;;;;17.38;11.70;;;;;;;;;;5073154;28;20062;-69
2022/03/26 09:54:26;;;;;;;16.63;11.13;;;;;;;;;;5072486;28;20025;-67
2022/03/26 09:56:52;;;;;;;59.15;15.98;;;922.00;537.60;;;;;;5072625;28;20060;-68
2022/03/26 09:59:21;;;;;;;18.65;12.63;;;;;;;;;;5072851;28;20064;-68
2022/03/26 10:01:48;;;;;;;20.20;12.93;;;;;;;;;;5073002;28;20490;-68
2022/03/26 10:04:16;;;;;;;19.63;11.82;;;947.80;486.40;;;;;;5072886;28;20454;-68
2022/03/26 10:07:00;;;;;;;15.75;11.70;;;948.10;512.00;;;;;;5072895;28;20414;-68
2022/03/26 10:09:27;;;;;;;13.68;11.85;;;;;;;;;;5072800;28;20463;-68
2022/03/26 10:12:00;;;;;;;21.83;13.63;;;;;;;;;;5072689;28;20052;-69
2022/03/26 10:14:47;;;;;;;14.65;11.25;;;998.90;486.40;;;;;;5072668;28;20028;-68
2022/03/26 10:17:24;;;;;;;20.95;14.45;;;998.80;486.40;;;;;;5072678;28;20048;-68
2022/03/26 10:19:50;;;;;;;14.30;11.38;;;;;;;;;;5072720;28;20031;-69
2022/03/26 10:22:22;;;;;;;13.30;9.98;;;;;;;;;;5072603;28;20111;-68
2022/03/26 10:24:49;;;;;;;15.38;10.60;;;;;;;;;;5072978;28;20017;-68
2022/03/26 10:27:17;;;;;;;13.38;11.00;;;;;;;;;;5072259;28;20131;-68
2022/03/26 10:29:50;;;;;;;12.80;10.35;;;;;;;;;;5072657;28;20020;-68
2022/03/26 10:32:49;;;;;;;10.88;9.52;;;;;;;;;;5072846;28;20498;-67
2022/03/26 10:35:20;;;;;;;15.27;10.55;;;;;;;;;;4971701;28;20441;-68
2022/03/26 10:37:59;;;;;;;16.60;11.32;;;;;;;;;;4971969;28;20043;-68
2022/03/26 10:40:36;;;;;;;14.13;10.43;;;;;;;;;;4971884;28;20035;-68
2022/03/26 10:43:09;;;;;;;12.20;9.63;;;1101.20;435.20;;;;;;4971805;28;20089;-68
2022/03/26 10:45:45;;;;;;;17.92;14.25;;;1101.60;409.60;;;;;;4971756;28;20060;-68
2022/03/26 10:48:11;;;;;;;19.33;15.02;;;1101.10;460.80;;;;;;4971689;28;20121;-68
2022/03/26 10:50:37;;;;;;;54.63;48.90;;;;;;;;;;4971657;28;20082;-70
2022/03/26 10:53:07;;;;;;;17.27;13.82;;;;;;;;;;4971690;28;20023;-69
2022/03/26 10:55:34;;;;;;;15.23;10.57;;;;;;;;;;4971733;28;20038;-69
2022/03/26 10:58:02;;;;;;;36.72;25.50;;;;;;;;;;4971531;28;20046;-68
2022/03/26 11:00:28;;;;;;;13.90;10.27;;;;;;;;;;4971520;28;20034;-69
2022/03/26 11:02:54;;;;;;;33.58;30.08;;;1126.40;435.20;;;;;;4971746;28;20059;-68
2022/03/26 11:05:19;;;;;;;18.20;14.27;;;1101.50;409.60;;;;;;4971489;28;20043;-68
2022/03/26 11:07:47;;;;;;;15.90;10.68;;;1101.40;435.20;;;;;;4971636;28;20039;-68
2022/03/26 11:10:13;;;;;;;13.70;9.63;;;1101.70;435.20;;;;;;4997582;28;20032;-68
2022/03/26 11:12:45;;;;;;;12.20;9.48;;;1101.30;435.20;;;;;;5071884;28;20421;-68
2022/03/26 11:15:33;;;;;;;14.88;10.10;;;1101.10;435.20;;;;;;5071848;28;20025;-69
2022/03/26 11:18:06;;;;;;;16.45;10.38;;;1101.30;435.20;;;;;;5071833;28;20045;-69
2022/03/26 11:21:09;;;;;;;17.75;10.40;;;1100.90;460.80;;;;;;5071750;28;20078;-69
2022/03/26 11:23:51;;;;;;;51.50;40.38;;;1100.80;435.20;;;;;;5071630;28;20103;-68
2022/03/26 11:26:36;;;;;;;16.50;12.75;;;;;;;;;;5071383;28;20059;-69
2022/03/26 11:29:11;;;;;;;36.00;27.85;;;;;;;;;;5071566;28;20513;-69
2022/03/26 11:31:51;;;;;;;14.98;9.65;;;;;;;;;;5071651;28;20028;-69
2022/03/26 11:34:18;;;;;;;15.90;12.38;;;;;;;;;;5071528;28;20383;-68
2022/03/26 11:36:45;;;;;;;14.43;9.70;;;;;;;;;;5071519;28;20364;-68
2022/03/26 11:39:18;;;;;;;22.30;11.25;;;;;;;;;;5074535;28;20013;-69
2022/03/26 11:41:45;;;;;;;16.60;10.43;;;;;;;;;;5075462;28;20086;-69
2022/03/26 11:44:12;;;;;;;12.05;8.98;;;;;;;;;;5057331;28;20060;-69
2022/03/26 11:52:21;;;;;;;52.97;46.35;;;;;;;;;;5075573;28;20098;-68
2022/03/26 11:54:49;;;;;;;19.83;16.63;;;;;;;;;;5075393;28;20522;-68
2022/03/26 11:57:16;;;;;;;15.25;11.18;;;;;;;;;;5075082;28;20033;-68
2022/03/26 11:59:42;;;;;;;11.38;8.27;;;973.70;460.80;;;;;;5075633;28;20020;-67
2022/03/26 12:02:28;;;;;;;9.18;7.55;;;;;;;;;;5075136;28;20095;-68
2022/03/26 12:04:56;;;;;;;12.75;11.10;;;;;;;;;;5075517;28;20094;-68
2022/03/26 12:07:23;;;;;;;11.52;8.43;;;;;;;;;;5075557;28;20049;-67
2022/03/26 12:10:03;;;;;;;16.25;9.52;;;;;;;;;;5075357;28;20055;-68
2022/03/26 12:12:45;;;;;;;14.40;9.20;;;;;;;;;;5075293;28;20031;-68
2022/03/26 12:15:12;;;;;;;14.90;8.15;;;;;;;;;;5075110;28;20044;-69
2022/03/26 12:17:43;;;;;;;16.35;11.27;;;;;;;;;;5075298;28;20043;-68
2022/03/26 12:20:43;;;;;;;71.32;17.30;;;921.80;486.40;;;;;;5075480;28;20024;-68
2022/03/26 12:23:11;;;;;;;9.77;7.47;;;;;;;;;;5074527;28;20024;-68
2022/03/26 12:25:49;;;;;;;17.33;8.68;;;;;;;;;;5074578;28;20052;-68
2022/03/26 12:28:16;;;;;;;22.00;9.02;;;;;;;;;;5055874;28;20372;-68
2022/03/26 12:30:49;;;;;;;13.85;9.00;;;;;;;;;;5074775;28;20074;-65
2022/03/26 12:33:15;;;;;;;22.10;10.07;;;;;;;;;;5056656;28;20461;-67
2022/03/26 12:35:45;;;;;;;21.67;10.52;;;;;;;;;;5074507;28;20032;-68
2022/03/26 12:38:12;;;;;;;18.30;9.43;;;;;;;;;;5074617;28;20089;-68
2022/03/26 12:40:38;;;;;;;27.58;12.82;;;896.60;512.00;;;;;;5074764;28;20094;-68
2022/03/26 12:43:09;;;;;;;12.65;8.27;;;896.70;512.00;;;;;;5074564;28;20016;-68
2022/03/26 12:45:35;;;;;;;;;;;896.50;512.00;;;;;;5057680;28;20021;-68
2022/03/26 12:48:01;;;;;;;21.65;13.07;;;;;;;;;;5074390;28;20375;-68
2022/03/26 12:50:28;;;;;;;21.05;10.27;;;;;;;;;;5074088;28;20025;-69
2022/03/26 12:52:54;;;;;;;29.08;12.50;;;;;;;;;;5074151;28;20378;-68
2022/03/26 12:55:20;;;;;;;21.58;11.57;;;;;;;;;;5074169;28;20099;-68
2022/03/26 13:00:33;;;;;;;14.95;8.70;;;;;;;;;;5074528;28;20111;-68
2022/03/26 13:03:03;;;;;;;33.50;18.92;;;;;;;;;;5074290;28;20108;-68
2022/03/26 13:05:30;;;;;;;10.23;8.43;;;;;;;;;;5074169;28;20070;-68
2022/03/26 13:07:57;;;;;;;20.48;11.27;;;;;;;;;;5074060;28;20487;-69
2022/03/26 13:10:33;;;;;;;11.38;8.15;;;;;;;;;;5073852;28;20029;-68
2022/03/26 13:12:59;;;;;;;10.65;8.20;;;;;;;;;;5074058;28;20552;-68
2022/03/26 13:15:25;;;;;;;10.57;7.78;;;;;;;;;;5074392;28;20044;-68
2022/03/26 13:17:51;;;;;;;14.40;7.97;;;;;;;;;;5074269;28;20028;-67
2022/03/26 13:20:27;;;;;;;13.35;9.27;;;;;;;;;;5073824;28;20021;-68
2022/03/26 13:22:57;;;;;;;11.93;7.38;;;;;;;;;;5073836;28;20127;-69
2022/03/26 13:25:23;;;;;;;28.05;10.20;;;;;;;;;;5073539;28;20032;-69
2022/03/26 13:27:49;;;;;;;16.05;10.02;;;;;;;;;;5073479;28;20383;-68
2022/03/26 13:30:15;;;;;;;17.10;10.27;;;;;;;;;;5073362;28;20029;-69
2022/03/26 13:32:43;;;;;;;25.80;13.32;;;;;;;;;;5073569;28;20017;-65
2022/03/26 13:35:11;;;;;;;19.08;10.13;;;;;;;;;;5073680;28;20023;-68
2022/03/26 13:37:37;;;;;;;21.40;10.65;;;;;;;;;;5073247;28;20072;-66
2022/03/26 13:40:04;;;;;;;16.33;8.88;;;;;;;;;;5073375;28;20028;-66
2022/03/26 13:42:30;;;;;;;18.98;11.20;;;;;;;;;;5073424;28;20017;-66
2022/03/26 13:44:58;;;;;;;16.48;9.05;;;692.00;665.60;;;;;;5073087;28;20039;-66
2022/03/26 13:47:31;;;;;;;23.40;10.40;;;;;;;;;;5072930;28;20033;-66
2022/03/26 13:50:03;;;;;;;17.73;9.50;;;;;;;;;;5073270;28;20028;-67
2022/03/26 13:52:34;;;;;;;20.58;11.52;;;;;;;;;;5072922;28;20467;-66
2022/03/26 13:55:00;;;;;;;12.27;7.35;;;;;;;;;;5073134;28;20048;-67
2022/03/26 13:57:33;;;;;;;19.42;10.20;;;;;;;;;;5072847;28;20482;-67
2022/03/26 14:00:11;;;;;;;18.95;9.02;;;;;;;;;;5072857;28;20027;-67
2022/03/26 14:02:38;;;;;;;23.52;9.43;;;;;;;;;;5072796;28;20025;-66
2022/03/26 14:05:16;;;;;;;19.67;9.35;;;;;;;;;;5073298;28;20514;-67
2022/03/26 14:07:42;;;;;;;15.68;8.30;;;;;;;;;;5072750;28;20450;-67
2022/03/26 14:10:10;;;;;;;13.48;8.95;;;;;;;;;;5072606;28;20100;-67
2022/03/26 14:12:36;;;;;;;20.58;12.63;;;;;;;;;;5073152;28;20033;-67
2022/03/26 14:15:02;;;;;;;15.93;8.82;;;;;;;;;;5073259;28;20028;-67